createdAt,value
2023-04-08T00:04:56.809Z,0.50
2023-04-08T00:10:02.163Z,0.50
2023-04-08T00:15:06.592Z,0.60
2023-04-08T00:20:10.974Z,0.40
2023-04-08T00:25:16.293Z,0.60
2023-04-08T00:30:19.996Z,0.75
2023-04-08T00:35:24.535Z,0.60
2023-04-08T00:40:30.809Z,0.40
2023-04-08T00:45:35.102Z,0.50
2023-04-08T00:50:38.705Z,0.80
2023-04-08T00:55:44.084Z,0.80
2023-04-08T01:00:54.568Z,0.95
2023-04-08T01:06:07.744Z,0.80
2023-04-08T01:11:14.704Z,0.55
2023-04-08T01:16:19.930Z,0.98
2023-04-08T01:21:26.347Z,1.00
2023-04-08T01:26:32.347Z,0.82
2023-04-08T01:31:39.433Z,0.77
2023-04-08T01:36:45.030Z,0.80
2023-04-08T01:41:51.316Z,0.70
2023-04-08T01:46:55.945Z,0.95
2023-04-08T01:52:01.496Z,1.00
2023-04-08T01:57:09.059Z,0.90
2023-04-08T02:02:13.728Z,1.10
2023-04-08T02:07:17.824Z,0.80
2023-04-08T02:12:23.300Z,0.90
2023-04-08T02:17:33.124Z,2.03
2023-04-08T02:22:44.280Z,2.50
2023-04-08T02:27:50.969Z,1.88
2023-04-08T02:32:57.336Z,1.30
2023-04-08T02:38:01.175Z,1.15
2023-04-08T02:43:06.495Z,1.33
2023-04-08T02:48:10.402Z,1.20
2023-04-08T02:53:14.029Z,1.10
2023-04-08T02:58:19.491Z,1.13
2023-04-08T03:03:23.280Z,1.40
2023-04-08T03:08:26.940Z,1.30
2023-04-08T03:13:32.929Z,1.48
2023-04-08T03:23:40.073Z,1.70
2023-04-08T03:28:45.362Z,1.50
2023-04-08T03:33:49.101Z,1.90
2023-04-08T03:38:53.434Z,1.70
2023-04-08T03:43:59.212Z,1.80
2023-04-08T03:49:02.835Z,1.92
2023-04-08T03:54:06.450Z,2.53
2023-04-08T03:59:11.699Z,3.15
2023-04-08T04:04:15.542Z,3.10
2023-04-08T04:09:19.275Z,3.42
2023-04-08T04:14:24.617Z,3.50
2023-04-08T04:19:31.824Z,3.57
2023-04-08T04:24:35.514Z,4.03
2023-04-08T04:29:42.269Z,2.40
2023-04-08T04:34:45.911Z,2.72
2023-04-08T04:39:49.518Z,2.97
2023-04-08T04:44:54.799Z,2.38
2023-04-08T04:49:58.396Z,1.90
2023-04-08T04:55:02.034Z,2.10
2023-04-08T05:00:08.670Z,2.00
2023-04-08T05:05:12.389Z,1.85
2023-04-08T05:10:16.017Z,1.38
2023-04-08T05:15:21.569Z,2.40
2023-04-08T05:20:25.162Z,2.20
2023-04-08T05:25:28.830Z,1.65
2023-04-08T05:30:34.079Z,1.70
2023-04-08T05:35:37.848Z,1.63
2023-04-08T05:40:41.589Z,1.75
2023-04-08T05:45:46.904Z,1.55
2023-04-08T05:50:50.560Z,1.60
2023-04-08T05:55:54.137Z,1.63
2023-04-08T06:00:59.486Z,1.40
2023-04-08T06:06:03.164Z,1.57
2023-04-08T06:11:06.847Z,1.70
2023-04-08T06:16:19.602Z,1.42
2023-04-08T06:21:24.490Z,1.10
2023-04-08T06:26:28.090Z,1.27
2023-04-08T06:31:34.206Z,1.30
2023-04-08T06:41:40.767Z,1.33
2023-04-08T06:46:46.077Z,1.20
2023-04-08T06:51:50.758Z,1.30
2023-04-08T06:56:54.397Z,1.55
2023-04-08T07:01:59.929Z,1.10
2023-04-08T07:07:03.631Z,1.03
2023-04-08T07:12:07.361Z,1.02
2023-04-08T07:17:12.616Z,1.42
2023-04-08T07:22:16.264Z,1.57
2023-04-08T07:27:19.882Z,1.70
2023-04-08T07:32:25.869Z,1.38
2023-04-08T07:37:29.569Z,1.60
2023-04-08T07:42:33.219Z,1.60
2023-04-08T07:47:39.516Z,1.25
2023-04-08T07:52:43.160Z,1.80
2023-04-08T07:57:46.793Z,1.33
2023-04-08T08:02:52.292Z,2.35
2023-04-08T08:07:56.020Z,1.73
2023-04-08T08:12:59.646Z,1.63
2023-04-08T08:18:05.106Z,1.75
2023-04-08T08:23:08.760Z,1.73
2023-04-08T08:28:12.360Z,1.60
2023-04-08T08:33:17.597Z,1.67
2023-04-08T08:38:21.294Z,1.50
2023-04-08T08:43:25.160Z,1.30
2023-04-08T08:48:32.040Z,1.50
2023-04-08T08:53:36.122Z,1.30
2023-04-08T08:58:39.831Z,1.40
2023-04-08T09:03:45.270Z,1.23
2023-04-08T09:08:50.248Z,1.47
2023-04-08T09:13:53.869Z,1.40
2023-04-08T09:19:09.963Z,1.42
2023-04-08T09:24:30.264Z,1.45
2023-04-08T09:29:35.232Z,1.10
2023-04-08T09:34:43.536Z,1.50
2023-04-08T09:39:47.171Z,1.63
2023-04-08T09:44:50.932Z,1.50
2023-04-08T09:49:59.294Z,1.50
2023-04-08T09:55:04.597Z,1.08
2023-04-08T10:00:13.848Z,1.20
2023-04-08T10:05:20.132Z,1.58
2023-04-08T10:15:28.369Z,1.70
2023-04-08T10:20:47.031Z,1.33
2023-04-08T10:25:50.705Z,1.55
2023-04-08T10:30:54.933Z,1.98
2023-04-08T10:36:10.381Z,1.85
2023-04-08T10:41:14.495Z,1.85
2023-04-08T10:46:18.239Z,1.33
2023-04-08T10:51:23.893Z,1.50
2023-04-08T10:56:27.572Z,1.40
2023-04-08T11:01:41.256Z,1.25
2023-04-08T11:06:47.624Z,1.50
2023-04-08T11:16:54.974Z,1.50
2023-04-08T11:22:00.434Z,1.27
2023-04-08T11:27:04.957Z,1.23
2023-04-08T11:32:09.035Z,1.30
2023-04-08T11:37:14.286Z,0.90
2023-04-08T11:42:28.710Z,1.02
2023-04-08T11:47:32.941Z,1.50
2023-04-08T11:52:45.728Z,1.30
2023-04-08T11:57:49.326Z,1.60
2023-04-08T12:02:53.250Z,1.23
2023-04-08T12:07:58.595Z,1.38
2023-04-08T12:13:02.210Z,0.98
2023-04-08T12:18:07.460Z,0.95
2023-04-08T12:23:12.689Z,1.02
2023-04-08T12:28:16.306Z,1.25
2023-04-08T12:33:19.891Z,1.20
2023-04-08T12:38:25.248Z,0.90
2023-04-08T12:43:28.903Z,1.50
2023-04-08T12:48:32.497Z,1.30
2023-04-08T12:53:37.775Z,1.35
2023-04-08T12:58:41.357Z,1.38
2023-04-08T13:03:46.977Z,1.13
2023-04-08T13:08:52.605Z,1.40
2023-04-08T13:13:56.389Z,1.07
2023-04-08T13:18:59.999Z,1.05
2023-04-08T13:24:05.704Z,1.38
2023-04-08T13:29:09.310Z,1.50
2023-04-08T13:34:13.662Z,1.75
2023-04-08T13:39:18.919Z,1.25
2023-04-08T13:44:22.529Z,1.27
2023-04-08T13:49:26.168Z,1.30
2023-04-08T13:54:31.452Z,1.25
2023-04-08T13:59:35.119Z,1.27
2023-04-08T14:04:38.734Z,1.20
2023-04-08T14:09:44.064Z,1.20
2023-04-08T14:14:47.869Z,1.13
2023-04-08T14:19:53.965Z,1.20
2023-04-08T14:24:59.298Z,1.40
2023-04-08T14:30:03.003Z,0.98
2023-04-08T14:35:08.780Z,1.13
2023-04-08T14:40:14.560Z,1.38
2023-04-08T14:45:18.522Z,1.00
2023-04-08T14:50:22.239Z,0.82
2023-04-08T14:55:27.514Z,1.27
2023-04-08T15:00:31.114Z,1.13
2023-04-08T15:05:36.693Z,0.80
2023-04-08T15:10:42.124Z,1.27
2023-04-08T15:15:45.840Z,1.05
2023-04-08T15:20:49.497Z,1.58
2023-04-08T15:25:54.803Z,1.00
2023-04-08T15:30:58.467Z,1.07
2023-04-08T15:36:02.202Z,1.33
2023-04-08T15:41:07.524Z,1.10
2023-04-08T15:46:11.153Z,1.07
2023-04-08T15:51:14.834Z,1.00
2023-04-08T15:56:20.344Z,0.90
2023-04-08T16:01:24.014Z,0.87
2023-04-08T16:06:27.717Z,0.82
2023-04-08T16:11:34.893Z,0.85
2023-04-08T16:16:38.822Z,0.88
2023-04-08T16:21:42.574Z,0.85
2023-04-08T16:26:48.744Z,0.88
2023-04-08T16:31:55.173Z,0.70
2023-04-08T16:36:58.919Z,0.80
2023-04-08T16:42:04.211Z,1.10
2023-04-08T16:47:07.833Z,0.90
2023-04-08T16:52:11.397Z,1.20
2023-04-08T16:57:17.615Z,1.10
2023-04-08T17:02:21.305Z,0.85
2023-04-08T17:07:25.055Z,0.63
2023-04-08T17:12:33.297Z,0.40
2023-04-08T17:17:36.983Z,0.50
2023-04-08T17:22:40.636Z,0.60
2023-04-08T17:27:45.881Z,0.80
2023-04-08T17:32:49.942Z,1.00
2023-04-08T17:37:53.563Z,1.17
2023-04-08T17:42:59.823Z,1.08
2023-04-08T17:48:03.442Z,0.95
2023-04-08T17:53:07.077Z,1.13
2023-04-08T17:58:12.376Z,1.02
2023-04-08T18:03:16.296Z,1.10
2023-04-08T18:08:20.079Z,1.00
2023-04-08T18:13:25.422Z,0.90
2023-04-08T18:18:29.032Z,1.00
2023-04-08T18:23:32.638Z,1.13
2023-04-08T18:28:37.882Z,1.20
2023-04-08T18:33:41.465Z,1.10
2023-04-08T18:38:45.681Z,1.17
2023-04-08T18:43:52.884Z,1.02
2023-04-08T18:48:56.822Z,1.15
2023-04-08T18:54:00.444Z,1.10
2023-04-08T18:59:05.751Z,1.00
2023-04-08T19:04:11.024Z,1.20
2023-04-08T19:09:14.631Z,1.20
2023-04-08T19:14:20.059Z,0.90
2023-04-08T19:19:23.699Z,1.23
2023-04-08T19:24:27.399Z,1.08
2023-04-08T19:29:34.643Z,1.00
2023-04-08T19:34:38.880Z,1.02
2023-04-08T19:39:42.490Z,1.33
2023-04-08T19:44:47.773Z,1.00
2023-04-08T19:49:51.401Z,0.90
2023-04-08T19:54:55.205Z,1.00
2023-04-08T20:00:00.510Z,1.00
2023-04-08T20:05:04.262Z,0.85
2023-04-08T20:10:09.106Z,0.80
2023-04-08T20:15:24.205Z,1.07
2023-04-08T20:25:33.709Z,0.85
2023-04-08T20:30:39.071Z,0.95
2023-04-08T20:35:42.716Z,0.98
2023-04-08T20:40:46.374Z,0.82
2023-04-08T20:45:51.633Z,1.00
2023-04-08T20:50:55.283Z,0.80
2023-04-08T20:55:58.890Z,0.93
2023-04-08T21:01:04.228Z,1.05
2023-04-08T21:06:08.149Z,0.90
2023-04-08T21:11:11.892Z,0.50
2023-04-08T21:16:17.316Z,0.90
2023-04-08T21:26:23.930Z,1.00
2023-04-08T21:31:32.226Z,0.80
2023-04-08T21:36:35.845Z,0.60
2023-04-08T21:41:39.450Z,0.75
2023-04-08T21:46:44.745Z,0.80
2023-04-08T21:56:51.318Z,0.50
2023-04-08T22:01:56.628Z,0.80
2023-04-08T22:23:57.564Z,0.50
2023-04-08T22:29:01.240Z,0.70
2023-04-08T22:34:04.959Z,0.40
2023-04-08T22:39:10.278Z,0.80
2023-04-08T22:44:13.933Z,0.57
2023-04-08T22:49:17.651Z,0.50
2023-04-08T22:54:23.890Z,0.45
2023-04-08T22:59:27.528Z,0.70
2023-04-08T23:04:31.217Z,0.55
2023-04-08T23:09:36.545Z,0.40
2023-04-08T23:14:40.258Z,0.22
2023-04-08T23:19:43.829Z,0.65
2023-04-08T23:24:50.244Z,0.60
2023-04-08T23:29:53.889Z,0.45
2023-04-08T23:34:57.543Z,0.40
2023-04-08T23:40:02.826Z,0.68
2023-04-08T23:45:07.487Z,0.70
2023-04-08T23:50:11.484Z,0.70
2023-04-08T23:55:19.046Z,0.60
